createdAt,value
2018-03-31T00:02:02.350Z,10.93
2018-03-31T00:04:34.168Z,11.37
2018-03-31T00:07:05.293Z,10.63
2018-03-31T00:09:36.421Z,12.43
2018-03-31T00:12:07.520Z,11.33
2018-03-31T00:14:38.596Z,11.27
2018-03-31T00:17:10.470Z,11.20
2018-03-31T00:19:41.558Z,11.40
2018-03-31T00:22:12.640Z,11.70
2018-03-31T00:24:44.440Z,11.33
2018-03-31T00:27:15.552Z,10.97
2018-03-31T00:29:46.600Z,10.83
2018-03-31T00:32:18.040Z,11.57
2018-03-31T00:34:49.111Z,11.00
2018-03-31T00:37:20.221Z,11.93
2018-03-31T00:39:51.340Z,12.17
2018-03-31T00:42:22.428Z,12.00
2018-03-31T00:44:53.515Z,10.90
2018-03-31T00:47:25.300Z,11.00
2018-03-31T00:49:56.414Z,10.87
2018-03-31T00:52:28.313Z,11.77
2018-03-31T00:54:59.407Z,12.07
2018-03-31T00:57:31.236Z,11.90
2018-03-31T01:00:02.263Z,10.50
2018-03-31T01:02:33.610Z,11.40
2018-03-31T01:05:05.061Z,12.97
2018-03-31T01:07:36.154Z,11.00
2018-03-31T01:10:07.280Z,12.40
2018-03-31T01:12:38.413Z,11.77
2018-03-31T01:15:09.503Z,12.77
2018-03-31T01:17:40.571Z,11.57
2018-03-31T01:20:11.993Z,11.30
2018-03-31T01:22:43.059Z,11.70
2018-03-31T01:25:14.483Z,12.57
2018-03-31T01:27:45.552Z,12.43
2018-03-31T01:30:16.624Z,12.03
2018-03-31T01:32:47.798Z,13.03
2018-03-31T01:35:18.880Z,12.00
2018-03-31T01:37:49.942Z,12.10
2018-03-31T01:40:21.356Z,12.40
2018-03-31T01:42:52.804Z,12.20
2018-03-31T01:45:23.869Z,12.07
2018-03-31T01:47:55.049Z,12.73
2018-03-31T01:50:26.867Z,12.13
2018-03-31T01:52:57.931Z,12.90
2018-03-31T01:55:29.734Z,12.17
2018-03-31T01:58:01.093Z,13.10
2018-03-31T02:00:32.235Z,13.00
2018-03-31T02:03:03.352Z,12.80
2018-03-31T02:05:34.396Z,12.83
2018-03-31T02:08:05.487Z,12.80
2018-03-31T02:10:36.524Z,12.20
2018-03-31T02:13:07.845Z,13.03
2018-03-31T02:15:38.940Z,11.80
2018-03-31T02:18:10.768Z,12.93
2018-03-31T02:20:42.040Z,11.77
2018-03-31T02:23:13.147Z,12.53
2018-03-31T02:25:45.048Z,11.43
2018-03-31T02:28:16.119Z,12.23
2018-03-31T02:30:47.218Z,12.90
2018-03-31T02:33:19.057Z,12.43
2018-03-31T02:35:50.908Z,12.60
2018-03-31T02:38:21.993Z,11.93
2018-03-31T02:40:53.085Z,12.07
2018-03-31T02:43:24.170Z,12.13
2018-03-31T02:45:55.319Z,11.97
2018-03-31T02:48:26.420Z,12.37
2018-03-31T02:50:58.280Z,12.87
2018-03-31T02:53:30.176Z,12.67
2018-03-31T02:56:01.535Z,11.57
2018-03-31T02:58:32.583Z,12.73
2018-03-31T03:01:03.676Z,13.17
2018-03-31T03:03:35.501Z,12.40
2018-03-31T03:06:06.663Z,12.53
2018-03-31T03:08:37.718Z,12.67
2018-03-31T03:11:09.564Z,11.13
2018-03-31T03:13:44.685Z,12.27
2018-03-31T03:16:17.409Z,12.20
2018-03-31T03:18:53.513Z,12.57
2018-03-31T03:21:30.573Z,11.87
2018-03-31T03:24:03.562Z,11.80
2018-03-31T03:26:36.823Z,12.03
2018-03-31T03:29:08.611Z,12.60
2018-03-31T03:31:42.385Z,12.40
2018-03-31T03:34:15.704Z,11.87
2018-03-31T03:36:49.062Z,11.83
2018-03-31T03:39:20.545Z,12.70
2018-03-31T03:41:52.021Z,13.10
2018-03-31T03:44:23.109Z,12.20
2018-03-31T03:46:55.868Z,12.13
2018-03-31T03:49:27.009Z,12.30
2018-03-31T03:51:58.112Z,13.30
2018-03-31T03:54:29.209Z,12.37
2018-03-31T03:57:01.041Z,13.37
2018-03-31T03:59:32.076Z,11.97
2018-03-31T04:02:03.169Z,12.77
2018-03-31T04:04:34.531Z,12.83
2018-03-31T04:07:05.632Z,12.40
2018-03-31T04:09:37.731Z,11.63
2018-03-31T04:12:08.868Z,12.97
2018-03-31T04:14:40.138Z,12.63
2018-03-31T04:17:11.354Z,12.53
2018-03-31T04:19:42.424Z,11.63
2018-03-31T04:22:13.498Z,12.77
2018-03-31T04:24:44.582Z,11.07
2018-03-31T04:27:15.676Z,12.83
2018-03-31T04:29:46.859Z,13.37
2018-03-31T04:32:18.030Z,11.77
2018-03-31T04:34:49.205Z,13.40
2018-03-31T04:37:20.276Z,12.73
2018-03-31T04:39:51.404Z,13.07
2018-03-31T04:42:23.278Z,13.33
2018-03-31T04:44:55.048Z,12.77
2018-03-31T04:47:26.158Z,12.27
2018-03-31T04:49:57.969Z,12.70
2018-03-31T04:52:29.107Z,12.77
2018-03-31T04:55:00.249Z,13.47
2018-03-31T04:57:31.377Z,12.57
2018-03-31T05:00:02.491Z,13.63
2018-03-31T05:02:34.300Z,12.23
2018-03-31T05:05:05.421Z,13.27
2018-03-31T05:07:36.743Z,14.17
2018-03-31T05:10:07.823Z,12.87
2018-03-31T05:12:38.925Z,14.17
2018-03-31T05:15:10.813Z,14.47
2018-03-31T05:17:41.884Z,13.73
2018-03-31T05:20:13.019Z,14.57
2018-03-31T05:22:44.860Z,14.53
2018-03-31T05:25:16.220Z,15.03
2018-03-31T05:27:47.327Z,14.40
2018-03-31T05:30:18.410Z,14.00
2018-03-31T05:32:49.479Z,14.23
2018-03-31T05:35:21.679Z,13.80
2018-03-31T05:37:52.791Z,13.40
2018-03-31T05:40:23.932Z,13.17
2018-03-31T05:42:55.050Z,14.03
2018-03-31T05:45:26.145Z,14.93
2018-03-31T05:47:57.246Z,13.83
2018-03-31T05:50:29.110Z,13.97
2018-03-31T05:53:00.952Z,14.33
2018-03-31T05:55:32.873Z,15.47
2018-03-31T05:58:03.991Z,14.27
2018-03-31T06:00:35.073Z,14.10
2018-03-31T06:03:06.208Z,15.07
2018-03-31T06:05:37.444Z,14.43
2018-03-31T06:08:08.495Z,14.70
2018-03-31T06:10:39.597Z,14.07
2018-03-31T06:13:10.715Z,14.50
2018-03-31T06:15:42.682Z,14.13
2018-03-31T06:18:13.727Z,14.23
2018-03-31T06:20:45.888Z,14.53
2018-03-31T06:23:17.729Z,14.77
2018-03-31T06:25:48.858Z,14.67
2018-03-31T06:28:19.962Z,13.63
2018-03-31T06:30:51.430Z,14.73
2018-03-31T06:33:22.516Z,14.90
2018-03-31T06:35:53.698Z,14.07
2018-03-31T06:38:24.738Z,14.03
2018-03-31T06:40:55.833Z,15.73
2018-03-31T06:43:26.941Z,14.13
2018-03-31T06:45:58.039Z,15.00
2018-03-31T06:48:29.107Z,15.93
2018-03-31T06:51:00.246Z,15.03
2018-03-31T06:53:31.326Z,15.70
2018-03-31T06:56:02.732Z,15.57
2018-03-31T06:58:33.787Z,15.67
2018-03-31T07:01:04.934Z,15.13
2018-03-31T07:03:36.075Z,15.47
2018-03-31T07:06:07.140Z,15.70
2018-03-31T07:08:38.259Z,16.47
2018-03-31T07:11:09.705Z,17.57
2018-03-31T07:13:40.810Z,16.07
2018-03-31T07:16:12.020Z,15.73
2018-03-31T07:18:43.089Z,15.87
2018-03-31T07:21:14.961Z,16.33
2018-03-31T07:23:46.031Z,16.03
2018-03-31T07:26:17.111Z,17.23
2018-03-31T07:28:48.178Z,16.00
2018-03-31T07:31:19.314Z,16.37
2018-03-31T07:33:51.088Z,16.33
2018-03-31T07:36:22.462Z,16.90
2018-03-31T07:38:53.546Z,17.50
2018-03-31T07:41:25.436Z,17.20
2018-03-31T07:43:57.353Z,17.30
2018-03-31T07:46:28.448Z,18.30
2018-03-31T07:48:59.523Z,18.53
2018-03-31T07:51:32.100Z,18.33
2018-03-31T07:54:03.190Z,18.33
2018-03-31T07:56:34.316Z,17.20
2018-03-31T07:59:06.173Z,17.97
2018-03-31T08:01:37.976Z,17.70
2018-03-31T08:04:09.121Z,19.20
2018-03-31T08:06:40.254Z,18.97
2018-03-31T08:09:11.330Z,18.57
2018-03-31T08:11:43.219Z,18.57
2018-03-31T08:14:14.360Z,18.87
2018-03-31T08:16:46.250Z,19.87
2018-03-31T08:19:18.084Z,20.43
2018-03-31T08:21:49.155Z,20.20
2018-03-31T08:24:21.018Z,20.10
2018-03-31T08:26:52.878Z,19.70
2018-03-31T08:29:24.348Z,20.37
2018-03-31T08:31:55.433Z,20.80
2018-03-31T08:34:27.349Z,20.53
2018-03-31T08:36:58.564Z,19.87
2018-03-31T08:39:29.632Z,20.23
2018-03-31T08:42:00.813Z,20.00
2018-03-31T08:44:31.869Z,21.93
2018-03-31T08:47:03.766Z,21.23
2018-03-31T08:49:34.821Z,22.03
2018-03-31T08:52:06.052Z,21.53
2018-03-31T08:54:37.104Z,21.97
2018-03-31T08:57:10.661Z,22.63
2018-03-31T08:59:41.801Z,22.80
2018-03-31T09:02:12.886Z,21.87
2018-03-31T09:04:43.991Z,21.80
2018-03-31T09:07:15.175Z,22.87
2018-03-31T09:09:46.276Z,24.33
2018-03-31T09:12:17.372Z,24.13
2018-03-31T09:14:49.199Z,24.10
2018-03-31T09:17:21.142Z,23.70
2018-03-31T09:19:52.222Z,24.90
2018-03-31T09:22:24.148Z,24.07
2018-03-31T09:24:55.379Z,25.63
2018-03-31T09:27:26.466Z,25.13
2018-03-31T09:29:58.441Z,24.47
2018-03-31T09:32:29.670Z,24.97
2018-03-31T09:35:00.729Z,25.73
2018-03-31T09:37:31.889Z,26.17
2018-03-31T09:40:02.950Z,25.53
2018-03-31T09:42:34.005Z,25.13
2018-03-31T09:45:05.084Z,25.93
2018-03-31T09:47:36.938Z,25.27
2018-03-31T09:50:07.989Z,23.63
2018-03-31T09:52:39.845Z,26.33
2018-03-31T09:55:11.161Z,24.17
2018-03-31T09:57:42.247Z,25.10
2018-03-31T10:00:13.383Z,24.17
2018-03-31T10:02:44.482Z,25.17
2018-03-31T10:05:15.629Z,25.30
2018-03-31T10:07:46.664Z,24.83
2018-03-31T10:10:17.867Z,25.20
2018-03-31T10:12:48.983Z,25.00
2018-03-31T10:15:20.815Z,24.23
2018-03-31T10:17:51.863Z,24.70
2018-03-31T10:20:22.970Z,25.70
2018-03-31T10:22:54.013Z,24.33
2018-03-31T10:25:25.108Z,25.10
2018-03-31T10:27:56.918Z,24.13
2018-03-31T10:30:28.044Z,24.20
2018-03-31T10:32:59.133Z,25.00
2018-03-31T10:35:30.267Z,24.53
2018-03-31T10:38:01.480Z,22.63
2018-03-31T10:40:32.618Z,23.43
2018-03-31T10:43:03.702Z,22.53
2018-03-31T10:45:35.092Z,25.40
2018-03-31T10:48:06.126Z,24.47
2018-03-31T10:50:37.254Z,25.23
2018-03-31T10:53:09.035Z,24.13
2018-03-31T10:55:40.140Z,23.37
2018-03-31T10:58:12.013Z,22.03
2018-03-31T11:00:43.183Z,23.43
2018-03-31T11:03:14.657Z,23.03
2018-03-31T11:05:45.735Z,24.10
2018-03-31T11:08:16.847Z,24.67
2018-03-31T11:10:47.944Z,24.50
2018-03-31T11:13:19.105Z,23.50
2018-03-31T11:15:50.268Z,24.73
2018-03-31T11:18:21.379Z,24.00
2018-03-31T11:20:52.493Z,24.63
2018-03-31T11:23:24.315Z,24.47
2018-03-31T11:25:55.336Z,24.23
2018-03-31T11:28:26.692Z,23.63
2018-03-31T11:30:57.728Z,23.63
2018-03-31T11:33:28.813Z,23.23
2018-03-31T11:36:00.677Z,24.33
2018-03-31T11:38:31.821Z,22.80
2018-03-31T11:41:02.969Z,23.47
2018-03-31T11:43:34.879Z,22.83
2018-03-31T11:46:06.001Z,22.23
2018-03-31T11:48:37.079Z,23.77
2018-03-31T11:51:08.210Z,23.10
2018-03-31T11:53:39.272Z,22.57
2018-03-31T11:56:11.116Z,22.50
2018-03-31T11:58:42.376Z,22.13
2018-03-31T12:01:13.575Z,21.03
2018-03-31T12:03:44.660Z,22.20
2018-03-31T12:06:16.609Z,23.57
2018-03-31T12:08:48.540Z,22.20
2018-03-31T12:11:19.622Z,22.70
2018-03-31T12:13:51.519Z,20.17
2018-03-31T12:16:22.631Z,21.80
2018-03-31T12:18:54.588Z,22.80
2018-03-31T12:21:25.710Z,22.13
2018-03-31T12:23:57.578Z,22.20
2018-03-31T12:26:29.427Z,22.70
2018-03-31T12:29:01.220Z,22.00
2018-03-31T12:31:32.387Z,22.07
2018-03-31T12:34:03.490Z,22.40
2018-03-31T12:36:35.061Z,21.80
2018-03-31T12:39:06.195Z,22.27
2018-03-31T12:41:37.294Z,22.27
2018-03-31T12:44:08.357Z,22.67
2018-03-31T12:46:39.457Z,22.63
2018-03-31T12:49:10.620Z,22.20
2018-03-31T12:51:41.739Z,21.77
2018-03-31T12:54:12.835Z,21.20
2018-03-31T12:56:43.856Z,21.43
2018-03-31T12:59:15.071Z,19.97
2018-03-31T13:01:46.137Z,21.33
2018-03-31T13:04:17.191Z,21.90
2018-03-31T13:06:48.240Z,21.90
2018-03-31T13:09:19.310Z,21.07
2018-03-31T13:11:50.395Z,19.97
2018-03-31T13:14:23.011Z,22.43
2018-03-31T13:16:54.045Z,20.00
2018-03-31T13:19:25.262Z,21.03
2018-03-31T13:21:56.600Z,22.10
2018-03-31T13:24:27.743Z,22.87
2018-03-31T13:26:58.808Z,21.33
2018-03-31T13:29:29.940Z,20.90
2018-03-31T13:32:01.057Z,20.83
2018-03-31T13:34:32.142Z,21.50
2018-03-31T13:37:03.224Z,20.90
2018-03-31T13:39:34.327Z,21.10
2018-03-31T13:42:05.423Z,21.20
2018-03-31T13:44:36.600Z,21.50
2018-03-31T13:47:07.837Z,21.50
2018-03-31T13:49:39.802Z,23.03
2018-03-31T13:52:12.448Z,22.57
2018-03-31T13:54:43.571Z,21.60
2018-03-31T13:57:14.685Z,21.87
2018-03-31T13:59:45.892Z,22.33
2018-03-31T14:02:16.947Z,22.77
2018-03-31T14:04:48.803Z,20.23
2018-03-31T14:07:19.971Z,21.83
2018-03-31T14:09:51.098Z,22.30
2018-03-31T14:12:22.940Z,20.63
2018-03-31T14:14:54.949Z,21.47
2018-03-31T14:17:26.348Z,22.20
2018-03-31T14:19:58.210Z,22.90
2018-03-31T14:22:30.044Z,23.70
2018-03-31T14:25:02.647Z,22.20
2018-03-31T14:27:34.435Z,22.40
2018-03-31T14:30:05.791Z,22.63
2018-03-31T14:32:36.875Z,22.67
2018-03-31T14:35:07.987Z,23.27
2018-03-31T14:37:39.096Z,23.67
2018-03-31T14:40:10.971Z,23.63
2018-03-31T14:42:42.028Z,24.43
2018-03-31T14:45:13.182Z,23.37
2018-03-31T14:47:44.292Z,24.57
2018-03-31T14:50:15.426Z,25.40
2018-03-31T14:52:46.475Z,25.87
2018-03-31T14:55:17.586Z,24.77
2018-03-31T14:57:49.643Z,25.00
2018-03-31T15:00:21.500Z,24.63
2018-03-31T15:02:52.771Z,24.93
2018-03-31T15:05:24.782Z,25.83
2018-03-31T15:07:56.099Z,25.87
2018-03-31T15:10:27.221Z,25.43
2018-03-31T15:12:59.213Z,26.40
2018-03-31T15:15:30.348Z,26.37
2018-03-31T15:18:01.414Z,27.47
2018-03-31T15:20:32.620Z,26.37
2018-03-31T15:23:03.652Z,27.30
2018-03-31T15:25:34.753Z,27.53
2018-03-31T15:28:05.836Z,26.90
2018-03-31T15:30:36.924Z,25.97
2018-03-31T15:33:09.552Z,25.93
2018-03-31T15:35:40.644Z,25.00
2018-03-31T15:38:12.464Z,26.13
2018-03-31T15:40:43.551Z,25.67
2018-03-31T15:43:15.356Z,25.23
2018-03-31T15:45:46.602Z,26.97
2018-03-31T15:48:17.716Z,26.47
2018-03-31T15:50:48.751Z,28.27
2018-03-31T15:53:19.924Z,27.57
2018-03-31T15:55:50.982Z,27.63
2018-03-31T15:58:22.032Z,25.97
2018-03-31T16:00:53.120Z,26.97
2018-03-31T16:03:24.165Z,28.53
2018-03-31T16:05:55.249Z,27.93
2018-03-31T16:08:26.314Z,27.57
2018-03-31T16:10:57.380Z,27.73
2018-03-31T16:13:28.446Z,28.03
2018-03-31T16:15:59.612Z,29.90
2018-03-31T16:18:30.669Z,27.87
2018-03-31T16:21:01.861Z,30.03
2018-03-31T16:23:32.918Z,30.53
2018-03-31T16:26:04.042Z,30.80
2018-03-31T16:28:35.124Z,30.10
2018-03-31T16:31:06.308Z,29.90
2018-03-31T16:33:37.391Z,30.00
2018-03-31T16:36:08.530Z,31.33
2018-03-31T16:38:39.576Z,30.30
2018-03-31T16:41:10.689Z,31.17
2018-03-31T16:43:41.731Z,29.47
2018-03-31T16:46:12.799Z,31.43
2018-03-31T16:48:43.913Z,32.40
2018-03-31T16:51:15.005Z,31.27
2018-03-31T16:53:47.563Z,32.73
2018-03-31T16:56:33.926Z,31.40
2018-03-31T16:59:05.034Z,32.57
2018-03-31T17:01:36.988Z,31.33
2018-03-31T17:04:08.099Z,30.90
2018-03-31T17:06:39.970Z,31.60
2018-03-31T17:09:11.847Z,32.30
2018-03-31T17:11:42.883Z,30.30
2018-03-31T17:14:13.996Z,30.40
2018-03-31T17:16:45.147Z,33.37
2018-03-31T17:19:16.270Z,33.57
2018-03-31T17:21:47.463Z,32.10
2018-03-31T17:24:18.608Z,32.93
2018-03-31T17:26:50.405Z,34.53
2018-03-31T17:29:21.559Z,30.70
2018-03-31T17:31:52.659Z,34.67
2018-03-31T17:34:24.462Z,37.47
2018-03-31T17:36:55.937Z,37.47
2018-03-31T17:39:27.724Z,39.43
2018-03-31T17:41:59.623Z,40.10
2018-03-31T17:44:30.711Z,41.63
2018-03-31T17:47:01.829Z,48.40
2018-03-31T17:49:32.944Z,49.20
2018-03-31T17:52:04.026Z,48.70
2018-03-31T17:54:35.120Z,52.53
2018-03-31T17:57:06.175Z,53.23
2018-03-31T17:59:37.280Z,53.73
2018-03-31T18:02:08.408Z,51.07
2018-03-31T18:04:39.544Z,51.30
2018-03-31T18:07:10.951Z,52.20
2018-03-31T18:09:42.037Z,52.17
2018-03-31T18:12:13.168Z,51.93
2018-03-31T18:14:44.212Z,41.43
2018-03-31T18:17:15.311Z,44.03
2018-03-31T18:19:46.377Z,42.93
2018-03-31T18:22:17.572Z,41.97
2018-03-31T18:24:48.661Z,42.37
2018-03-31T18:27:20.551Z,41.10
2018-03-31T18:29:51.657Z,43.10
2018-03-31T18:32:22.892Z,43.07
2018-03-31T18:34:54.064Z,42.10
2018-03-31T18:37:25.895Z,41.27
2018-03-31T18:39:56.971Z,38.90
2018-03-31T18:42:28.859Z,39.90
2018-03-31T18:45:00.138Z,37.70
2018-03-31T18:47:31.372Z,38.47
2018-03-31T18:50:02.449Z,34.77
2018-03-31T18:52:34.359Z,35.33
2018-03-31T18:55:05.404Z,29.17
2018-03-31T18:57:36.481Z,34.60
2018-03-31T19:00:08.286Z,34.60
2018-03-31T19:02:39.496Z,33.00
2018-03-31T19:05:11.295Z,29.63
2018-03-31T19:07:42.401Z,32.67
2018-03-31T19:10:14.611Z,35.47
2018-03-31T19:12:45.633Z,35.33
2018-03-31T19:15:17.144Z,32.67
2018-03-31T19:17:49.720Z,35.67
2018-03-31T19:20:20.841Z,20.90
2018-03-31T19:22:53.633Z,33.70
2018-03-31T19:25:30.892Z,33.37
2018-03-31T19:28:01.952Z,34.10
2018-03-31T19:30:39.274Z,34.63
2018-03-31T19:33:10.440Z,35.40
2018-03-31T19:35:47.755Z,34.33
2018-03-31T19:38:19.003Z,32.90
2018-03-31T19:40:50.140Z,31.90
2018-03-31T19:43:21.229Z,31.37
2018-03-31T19:45:53.092Z,33.20
2018-03-31T19:48:24.209Z,30.77
2018-03-31T19:50:55.507Z,32.17
2018-03-31T19:53:26.990Z,31.57
2018-03-31T19:55:58.296Z,33.07
2018-03-31T19:58:29.362Z,31.33
2018-03-31T20:01:00.470Z,33.23
2018-03-31T20:03:31.604Z,32.23
2018-03-31T20:06:03.460Z,32.03
2018-03-31T20:08:35.272Z,32.50
2018-03-31T20:11:06.401Z,29.70
2018-03-31T20:13:37.500Z,28.60
2018-03-31T20:16:08.611Z,31.20
2018-03-31T20:18:39.690Z,29.50
2018-03-31T20:21:10.800Z,31.23
2018-03-31T20:23:42.022Z,29.63
2018-03-31T20:26:13.102Z,29.90
2018-03-31T21:44:46.164Z,22.20
2018-03-31T21:47:17.287Z,22.90
2018-03-31T21:49:48.426Z,22.07
2018-03-31T21:52:20.288Z,24.20
2018-03-31T21:54:51.420Z,22.07
2018-03-31T21:57:22.495Z,20.87
2018-03-31T21:59:53.978Z,20.77
2018-03-31T22:02:25.036Z,18.83
2018-03-31T22:04:56.218Z,21.27
2018-03-31T22:07:27.344Z,20.80
2018-03-31T22:09:58.420Z,19.70
2018-03-31T22:12:29.463Z,20.07
2018-03-31T22:15:06.724Z,21.20
2018-03-31T22:17:37.841Z,19.57
2018-03-31T22:20:08.901Z,15.83
2018-03-31T22:22:40.040Z,19.07
2018-03-31T22:25:11.805Z,19.63
2018-03-31T22:27:42.979Z,18.73
2018-03-31T22:30:14.043Z,19.77
2018-03-31T22:32:45.363Z,17.43
2018-03-31T22:35:16.484Z,18.67
2018-03-31T22:37:47.624Z,17.47
2018-03-31T22:40:18.669Z,17.73
2018-03-31T22:42:49.896Z,17.37
2018-03-31T22:45:21.676Z,12.77
2018-03-31T22:47:52.817Z,13.90
2018-03-31T22:50:23.941Z,15.23
2018-03-31T22:52:55.461Z,14.53
2018-03-31T22:55:26.550Z,13.87
2018-03-31T22:57:57.902Z,14.53
2018-03-31T23:00:28.939Z,14.47
2018-03-31T23:03:00.013Z,14.53
2018-03-31T23:05:31.177Z,14.47
2018-03-31T23:08:02.223Z,14.33
2018-03-31T23:10:33.335Z,15.40
2018-03-31T23:13:04.401Z,14.83
2018-03-31T23:15:35.502Z,10.70
2018-03-31T23:18:06.589Z,14.33
2018-03-31T23:20:38.427Z,14.37
2018-03-31T23:23:09.458Z,12.83
2018-03-31T23:25:40.553Z,9.67
2018-03-31T23:28:12.813Z,12.87
2018-03-31T23:30:44.628Z,13.67
2018-03-31T23:33:15.652Z,11.70
2018-03-31T23:35:46.791Z,12.40
2018-03-31T23:38:18.199Z,12.57
2018-03-31T23:40:50.001Z,11.50
2018-03-31T23:43:21.070Z,9.53
2018-03-31T23:45:52.160Z,10.37
2018-03-31T23:48:23.328Z,9.27
2018-03-31T23:50:54.430Z,9.33
2018-03-31T23:53:26.247Z,8.80
2018-03-31T23:55:57.365Z,9.00
2018-03-31T23:58:28.475Z,9.23
